Time;durP1;ratioP1;P1;durP2;ratioP2;P2;SDS_P1;SDS_P2;PMS_P1;PMS_P2;Temp;Humidity;BMP_temperature;BMP_pressure;BME280_temperature;BME280_humidity;BME280_pressure;Samples;Min_cycle;Max_cycle;Signal;HPM_P1;HPM_P2
2021/06/25 00:01:52;;;;;;;20.27;7.53;;;29.70;99.90;;;;;;5095216;28;20191;-68
2021/06/25 00:04:18;;;;;;;26.90;9.70;;;29.80;99.90;;;;;;5110925;28;20261;-68
2021/06/25 00:06:44;;;;;;;35.30;9.10;;;29.70;99.90;;;;;;5095144;28;20194;-69
2021/06/25 00:09:10;;;;;;;28.40;8.90;;;29.50;99.90;;;;;;5095083;28;20552;-69
2021/06/25 00:11:36;;;;;;;28.20;9.80;;;29.30;99.90;;;;;;5093903;28;20482;-67
2021/06/25 00:14:01;;;;;;;19.90;7.47;;;29.20;99.90;;;;;;5095637;28;20178;-67
2021/06/25 00:16:27;;;;;;;21.20;8.40;;;29.30;99.90;;;;;;5094988;28;20634;-66
2021/06/25 00:18:53;;;;;;;27.13;8.83;;;29.30;99.90;;;;;;5093849;28;20268;-66
2021/06/25 00:21:18;;;;;;;25.03;8.70;;;29.20;99.90;;;;;;5094977;28;20194;-68
2021/06/25 00:23:44;;;;;;;21.60;7.87;;;28.90;99.90;;;;;;5094927;28;20233;-68
2021/06/25 00:26:09;;;;;;;29.67;8.13;;;28.70;99.90;;;;;;5093534;28;20203;-66
2021/06/25 00:28:35;;;;;;;21.77;8.57;;;28.60;99.90;;;;;;5095122;28;20203;-67
2021/06/25 00:31:01;;;;;;;29.17;9.40;;;28.60;99.90;;;;;;5110416;28;20569;-67
2021/06/25 00:33:26;;;;;;;27.67;9.03;;;28.70;99.90;;;;;;5094736;28;20180;-67
2021/06/25 00:35:53;;;;;;;19.80;9.03;;;28.80;99.90;;;;;;5094029;28;20229;-68
2021/06/25 00:38:19;;;;;;;27.57;8.37;;;28.70;99.90;;;;;;5093494;28;20495;-67
2021/06/25 00:40:45;;;;;;;29.27;9.63;;;28.90;99.90;;;;;;5094566;28;20228;-69
2021/06/25 00:43:10;;;;;;;31.23;8.43;;;28.90;99.90;;;;;;5094613;28;20441;-67
2021/06/25 00:45:36;;;;;;;24.43;8.53;;;28.80;99.90;;;;;;5094452;28;20201;-67
2021/06/25 00:48:02;;;;;;;17.93;7.03;;;29.00;99.90;;;;;;5094633;28;20194;-66
2021/06/25 00:50:30;;;;;;;30.70;8.00;;;28.90;99.90;;;;;;5094357;28;20250;-67
2021/06/25 00:52:58;;;;;;;25.83;7.80;;;28.80;99.90;;;;;;5094538;28;20502;-68
2021/06/25 00:55:26;;;;;;;30.40;8.90;;;28.80;99.90;;;;;;5094313;28;20462;-68
2021/06/25 00:57:52;;;;;;;25.07;7.67;;;28.80;99.90;;;;;;5094487;28;20938;-66
2021/06/25 01:00:20;;;;;;;23.10;8.17;;;28.80;99.90;;;;;;5094241;28;20425;-66
2021/06/25 01:02:45;;;;;;;20.87;8.00;;;28.70;99.90;;;;;;5094370;28;20230;-67
2021/06/25 01:05:13;;;;;;;29.30;10.17;;;28.70;99.90;;;;;;5093916;28;20897;-67
2021/06/25 01:07:39;;;;;;;26.20;8.90;;;28.70;99.90;;;;;;5094222;28;20647;-66
2021/06/25 01:10:09;;;;;;;27.67;8.80;;;28.80;99.90;;;;;;5093931;28;20476;-68
2021/06/25 01:12:35;;;;;;;23.37;8.60;;;28.80;99.90;;;;;;5094227;28;20182;-68
2021/06/25 01:15:01;;;;;;;29.17;9.30;;;28.70;99.90;;;;;;5092680;28;20423;-67
2021/06/25 01:17:32;;;;;;;30.50;8.97;;;28.60;99.90;;;;;;5094380;28;20419;-66
2021/06/25 01:20:00;;;;;;;28.43;9.53;;;28.70;99.90;;;;;;5109587;28;20186;-66
2021/06/25 01:22:34;;;;;;;28.60;10.27;;;28.60;99.90;;;;;;5094095;28;20410;-68
2021/06/25 01:25:04;;;;;;;24.63;8.30;;;28.70;99.90;;;;;;5093568;28;20483;-67
2021/06/25 01:27:30;;;;;;;32.03;11.80;;;28.70;99.90;;;;;;5094084;28;20903;-67
2021/06/25 01:30:01;;;;;;;31.17;10.10;;;28.80;99.90;;;;;;5093677;28;20827;-68
2021/06/25 01:32:26;;;;;;;25.20;9.33;;;28.80;99.90;;;;;;5093793;28;20409;-69
2021/06/25 01:34:52;;;;;;;22.13;9.30;;;28.80;99.90;;;;;;5092493;28;20422;-68
2021/06/25 01:37:19;;;;;;;29.60;11.60;;;28.80;99.90;;;;;;5093866;28;20166;-66
2021/06/25 01:39:49;;;;;;;36.90;10.47;;;28.90;99.90;;;;;;5093714;28;20255;-67
2021/06/25 01:42:15;;;;;;;25.23;10.30;;;28.90;99.90;;;;;;5093986;28;20421;-67
2021/06/25 01:44:41;;;;;;;28.63;9.83;;;29.10;99.90;;;;;;5093674;28;20814;-67
2021/06/25 01:47:06;;;;;;;26.17;9.33;;;29.20;99.90;;;;;;5094270;28;20613;-69
2021/06/25 01:49:32;;;;;;;23.73;9.70;;;29.40;99.90;;;;;;5097833;28;20260;-67
2021/06/25 01:51:58;;;;;;;28.30;11.00;;;29.50;99.90;;;;;;5113545;28;20205;-67
2021/06/25 01:54:23;;;;;;;25.63;9.10;;;29.50;99.90;;;;;;5097826;28;20174;-67
2021/06/25 01:56:49;;;;;;;28.07;9.90;;;29.50;99.90;;;;;;5113424;28;20196;-68
2021/06/25 01:59:15;;;;;;;31.20;9.20;;;29.40;99.90;;;;;;5098028;28;20178;-69
2021/06/25 02:01:42;;;;;;;39.47;10.83;;;29.50;99.90;;;;;;5097696;28;20253;-66
2021/06/25 02:04:08;;;;;;;27.30;9.23;;;29.40;99.90;;;;;;5097899;28;20787;-69
2021/06/25 02:06:33;;;;;;;25.80;9.90;;;29.30;99.90;;;;;;5113263;28;20433;-69
2021/06/25 02:09:01;;;;;;;27.23;9.77;;;29.30;99.90;;;;;;5097917;28;20219;-68
2021/06/25 02:11:26;;;;;;;28.47;9.57;;;29.40;99.90;;;;;;5097469;28;20646;-68
2021/06/25 02:13:52;;;;;;;29.50;10.27;;;29.30;99.90;;;;;;5097304;28;20423;-67
2021/06/25 02:16:18;;;;;;;25.70;8.80;;;29.30;99.90;;;;;;5097307;28;20193;-68
2021/06/25 02:18:44;;;;;;;18.27;9.33;;;29.30;99.90;;;;;;5097759;28;20546;-68
2021/06/25 02:21:09;;;;;;;28.47;10.10;;;29.20;99.90;;;;;;5097197;28;20674;-67
2021/06/25 02:23:35;;;;;;;22.67;10.20;;;29.20;99.90;;;;;;5097365;28;20236;-67
2021/06/25 02:26:00;;;;;;;25.63;9.57;;;29.20;99.90;;;;;;5097058;28;20570;-69
2021/06/25 02:28:26;;;;;;;32.73;10.10;;;29.20;99.90;;;;;;5095948;28;20189;-68
2021/06/25 02:30:53;;;;;;;30.57;10.23;;;29.20;99.90;;;;;;5097107;28;20211;-67
2021/06/25 02:33:19;;;;;;;28.27;9.50;;;29.20;99.90;;;;;;5097433;28;20422;-67
2021/06/25 02:35:46;;;;;;;25.20;10.10;;;29.40;99.90;;;;;;5096988;28;20476;-68
2021/06/25 02:38:11;;;;;;;25.13;10.00;;;29.30;99.90;;;;;;5097349;28;20228;-66
2021/06/25 02:40:37;;;;;;;24.33;10.30;;;29.20;99.90;;;;;;5097059;28;20426;-68
2021/06/25 02:43:03;;;;;;;35.20;10.33;;;29.30;99.90;;;;;;5112691;28;20178;-66
2021/06/25 02:45:29;;;;;;;26.87;9.53;;;29.30;99.90;;;;;;5112444;28;20254;-66
2021/06/25 02:47:54;;;;;;;25.03;10.20;;;29.30;99.90;;;;;;5097072;28;20657;-66
2021/06/25 02:50:20;;;;;;;27.27;10.23;;;29.20;99.90;;;;;;5096643;28;20296;-68
2021/06/25 02:52:45;;;;;;;28.73;11.10;;;29.10;99.90;;;;;;5096630;28;20219;-66
2021/06/25 02:55:12;;;;;;;23.70;10.33;;;29.00;99.90;;;;;;5096572;28;20205;-66
2021/06/25 02:57:38;;;;;;;29.23;10.90;;;28.90;99.90;;;;;;5112449;28;20208;-66
2021/06/25 03:00:06;;;;;;;22.33;10.60;;;28.90;99.90;;;;;;5095533;28;20516;-68
2021/06/25 03:02:32;;;;;;;34.87;12.20;;;28.80;99.90;;;;;;5096395;28;20477;-69
2021/06/25 03:04:57;;;;;;;35.90;11.23;;;28.70;99.90;;;;;;5096287;28;20495;-67
2021/06/25 03:07:23;;;;;;;28.60;11.03;;;28.70;99.90;;;;;;5096513;28;20578;-69
2021/06/25 03:09:49;;;;;;;23.40;10.10;;;28.60;99.90;;;;;;5094961;28;20220;-66
2021/06/25 03:12:14;;;;;;;24.57;10.97;;;28.50;99.90;;;;;;5095085;28;20184;-66
2021/06/25 03:14:41;;;;;;;27.57;10.70;;;28.40;99.90;;;;;;5096314;28;20607;-67
2021/06/25 03:17:08;;;;;;;38.07;11.57;;;28.40;99.90;;;;;;5096077;28;20258;-67
2021/06/25 03:19:35;;;;;;;45.73;12.80;;;28.30;99.90;;;;;;5096299;28;20427;-68
2021/06/25 03:22:01;;;;;;;31.20;11.00;;;28.20;99.90;;;;;;5094724;28;20498;-68
2021/06/25 03:24:26;;;;;;;25.40;9.73;;;28.30;99.90;;;;;;5095914;28;20457;-67
2021/06/25 03:26:52;;;;;;;32.90;11.47;;;28.20;99.90;;;;;;5095935;28;20203;-67
2021/06/25 03:29:18;;;;;;;19.60;10.93;;;28.00;99.90;;;;;;5095918;28;20257;-69
2021/06/25 03:31:43;;;;;;;23.63;10.10;;;27.90;99.90;;;;;;5095965;28;20196;-67
2021/06/25 03:34:09;;;;;;;27.53;10.70;;;28.00;99.90;;;;;;5095878;28;20207;-68
2021/06/25 03:36:34;;;;;;;23.17;9.47;;;28.00;99.90;;;;;;5095802;28;20215;-68
2021/06/25 03:39:00;;;;;;;24.10;9.47;;;27.80;99.90;;;;;;5095906;28;20181;-67
2021/06/25 03:41:26;;;;;;;29.13;9.23;;;27.80;99.90;;;;;;5095179;28;20226;-68
2021/06/25 03:43:51;;;;;;;22.73;9.90;;;27.70;99.90;;;;;;5095778;28;20181;-69
2021/06/25 03:46:17;;;;;;;29.70;9.97;;;27.50;99.90;;;;;;5111182;28;20242;-66
2021/06/25 03:48:43;;;;;;;34.53;11.57;;;27.50;99.90;;;;;;5095986;28;20172;-67
2021/06/25 03:51:09;;;;;;;28.73;10.93;;;27.60;99.90;;;;;;5095563;28;20779;-66
2021/06/25 03:53:35;;;;;;;29.03;11.40;;;27.60;99.90;;;;;;5095520;28;20993;-68
2021/06/25 03:56:12;;;;;;;27.07;9.80;;;27.60;99.90;;;;;;5095410;28;20216;-68
2021/06/25 03:58:40;;;;;;;28.23;9.70;;;27.70;99.90;;;;;;5095937;28;20179;-68
2021/06/25 04:01:06;;;;;;;29.07;11.80;;;27.60;99.90;;;;;;5110956;28;20445;-67
2021/06/25 04:03:32;;;;;;;36.47;10.67;;;27.70;99.90;;;;;;5094212;28;20433;-67
2021/06/25 04:05:57;;;;;;;30.03;11.10;;;27.80;99.90;;;;;;5095081;28;20429;-66
2021/06/25 04:08:26;;;;;;;26.23;10.00;;;27.80;99.90;;;;;;5095658;28;20738;-66
2021/06/25 04:10:51;;;;;;;21.57;10.47;;;27.80;99.90;;;;;;5095078;28;20261;-66
2021/06/25 04:13:17;;;;;;;26.33;10.37;;;27.90;99.90;;;;;;5095486;28;20413;-67
2021/06/25 04:15:43;;;;;;;27.10;10.37;;;27.90;99.90;;;;;;5093834;28;20242;-66
2021/06/25 04:18:08;;;;;;;41.60;11.20;;;27.90;99.90;;;;;;5094902;28;20630;-66
2021/06/25 04:20:34;;;;;;;27.50;10.10;;;27.90;99.90;;;;;;5094996;28;20743;-69
2021/06/25 04:22:59;;;;;;;28.03;11.03;;;27.90;99.90;;;;;;5095299;28;20223;-67
2021/06/25 04:25:25;;;;;;;35.37;12.07;;;27.80;99.90;;;;;;5110401;28;20212;-68
2021/06/25 04:27:51;;;;;;;29.87;11.00;;;27.50;99.90;;;;;;5093578;28;20180;-68
2021/06/25 04:30:17;;;;;;;36.47;11.37;;;27.60;99.90;;;;;;5091508;28;20234;-66
2021/06/25 04:32:43;;;;;;;19.40;9.53;;;27.70;99.90;;;;;;5092787;28;20655;-68
2021/06/25 04:35:11;;;;;;;26.23;10.10;;;27.80;99.90;;;;;;5109218;28;20503;-68
2021/06/25 04:37:36;;;;;;;30.37;9.70;;;27.80;99.90;;;;;;5094918;28;20169;-66
2021/06/25 04:40:03;;;;;;;25.00;9.93;;;27.90;99.90;;;;;;5094584;28;20400;-67
2021/06/25 04:42:28;;;;;;;25.33;11.30;;;28.00;99.90;;;;;;5094649;28;20260;-68
2021/06/25 04:44:54;;;;;;;21.00;9.03;;;28.10;99.90;;;;;;5094330;28;20843;-66
2021/06/25 04:47:19;;;;;;;26.70;9.00;;;28.10;99.90;;;;;;5093233;28;20200;-67
2021/06/25 04:49:45;;;;;;;31.73;8.50;;;28.10;99.90;;;;;;5109985;28;20238;-68
2021/06/25 04:52:11;;;;;;;27.47;9.23;;;28.20;99.90;;;;;;5094425;28;20234;-67
2021/06/25 04:54:36;;;;;;;29.40;9.60;;;28.20;99.90;;;;;;5094458;28;20268;-68
2021/06/25 04:57:02;;;;;;;24.97;8.90;;;28.30;99.90;;;;;;5094311;28;20581;-66
2021/06/25 04:59:28;;;;;;;29.60;9.63;;;28.50;99.90;;;;;;5109612;28;20267;-68
2021/06/25 05:01:54;;;;;;;23.57;7.90;;;28.50;99.90;;;;;;5093747;28;20550;-68
2021/06/25 05:04:21;;;;;;;24.00;8.47;;;28.30;99.90;;;;;;5094149;28;20222;-69
2021/06/25 05:06:47;;;;;;;25.93;7.10;;;28.40;99.90;;;;;;5093752;28;20426;-68
2021/06/25 05:09:16;;;;;;;25.13;7.97;;;28.30;99.90;;;;;;5094143;28;21032;-67
2021/06/25 05:11:42;;;;;;;27.47;8.80;;;28.30;99.90;;;;;;5093935;28;20429;-66
2021/06/25 05:14:08;;;;;;;20.93;8.80;;;28.50;99.90;;;;;;5094545;28;20413;-69
2021/06/25 05:16:35;;;;;;;20.13;7.70;;;28.60;99.90;;;;;;5093923;28;20421;-68
2021/06/25 05:19:01;;;;;;;25.03;8.90;;;28.90;99.90;;;;;;5094507;28;20937;-67
2021/06/25 05:21:27;;;;;;;20.90;8.20;;;29.00;99.90;;;;;;5092240;28;20432;-69
2021/06/25 05:23:53;;;;;;;29.50;8.60;;;29.00;99.90;;;;;;5093409;28;20483;-68
2021/06/25 05:26:20;;;;;;;27.93;9.37;;;28.90;99.90;;;;;;5092447;28;20425;-68
2021/06/25 05:28:46;;;;;;;32.00;8.63;;;28.90;99.90;;;;;;5109659;28;20238;-69
2021/06/25 05:31:11;;;;;;;26.43;8.40;;;28.90;99.90;;;;;;5093831;28;20433;-67
2021/06/25 05:33:37;;;;;;;17.03;7.57;;;29.00;99.90;;;;;;5094273;28;20253;-67
2021/06/25 05:36:03;;;;;;;27.47;7.83;;;29.10;99.90;;;;;;5092470;28;20203;-67
2021/06/25 05:38:29;;;;;;;20.73;7.50;;;29.10;99.90;;;;;;5094156;28;20181;-66
2021/06/25 05:40:54;;;;;;;29.53;7.70;;;29.30;99.90;;;;;;5093267;28;20427;-66
2021/06/25 05:43:20;;;;;;;21.60;8.10;;;29.00;99.90;;;;;;5094213;28;20205;-69
2021/06/25 05:45:46;;;;;;;18.30;8.27;;;29.20;99.90;;;;;;5093371;28;20233;-67
2021/06/25 05:48:11;;;;;;;25.07;8.20;;;29.30;99.90;;;;;;5109256;28;20508;-67
2021/06/25 05:50:38;;;;;;;22.10;7.00;;;29.40;99.90;;;;;;5093502;28;20231;-66
2021/06/25 05:53:05;;;;;;;19.87;7.53;;;29.50;99.90;;;;;;5093791;28;20190;-66
2021/06/25 05:55:31;;;;;;;26.60;7.93;;;29.60;99.90;;;;;;5092301;28;20486;-66
2021/06/25 05:57:57;;;;;;;23.90;7.50;;;29.70;99.90;;;;;;5092796;28;20435;-68
2021/06/25 06:00:22;;;;;;;22.60;7.30;;;29.60;99.90;;;;;;5091552;28;20430;-68
2021/06/25 06:02:48;;;;;;;22.60;8.23;;;29.40;99.90;;;;;;5092468;28;20175;-69
2021/06/25 06:05:14;;;;;;;15.20;6.33;;;29.70;99.90;;;;;;5091235;28;20294;-66
2021/06/25 06:07:39;;;;;;;29.13;8.00;;;30.00;99.90;;;;;;5088899;28;20558;-66
2021/06/25 06:10:06;;;;;;;28.40;8.60;;;30.40;99.90;;;;;;5089820;28;20257;-68
2021/06/25 06:12:32;;;;;;;19.30;6.40;;;30.50;99.90;;;;;;5092354;28;20199;-66
2021/06/25 06:14:58;;;;;;;22.97;9.20;;;30.60;99.90;;;;;;5092761;28;20787;-68
2021/06/25 06:17:24;;;;;;;24.33;8.47;;;30.60;99.90;;;;;;5093535;28;20784;-67
2021/06/25 06:19:54;;;;;;;20.93;7.20;;;30.70;99.90;;;;;;5091453;28;20184;-66
2021/06/25 06:33:31;;;;;;;15.67;7.07;;;30.50;99.90;;;;;;5091959;28;20946;-66
2021/06/25 06:35:57;;;;;;;16.20;6.50;;;30.50;99.90;;;;;;5086554;28;20619;-67
2021/06/25 06:38:26;;;;;;;20.57;6.67;;;30.90;99.90;;;;;;5090017;28;20531;-67
2021/06/25 06:40:51;;;;;;;23.90;8.50;;;30.60;99.90;;;;;;5090722;28;20254;-68
2021/06/25 06:43:17;;;;;;;19.50;7.80;;;30.60;99.90;;;;;;5095412;28;20427;-68
2021/06/25 06:45:43;;;;;;;15.60;7.20;;;30.70;99.90;;;;;;5095941;28;20199;-67
2021/06/25 06:48:09;;;;;;;21.80;7.93;;;30.70;99.90;;;;;;5094125;28;20561;-66
2021/06/25 06:50:34;;;;;;;31.07;8.60;;;30.70;99.90;;;;;;5093872;28;20766;-69
2021/06/25 06:53:00;;;;;;;20.57;7.70;;;30.70;99.90;;;;;;5092041;28;20428;-67
2021/06/25 06:55:25;;;;;;;22.43;7.97;;;30.80;99.90;;;;;;5092108;28;20254;-66
2021/06/25 06:57:51;;;;;;;17.03;7.67;;;30.80;99.90;;;;;;5110771;28;20546;-66
2021/06/25 07:00:18;;;;;;;20.33;7.50;;;31.00;99.90;;;;;;5095305;28;20194;-66
2021/06/25 07:02:44;;;;;;;24.17;8.00;;;31.00;99.90;;;;;;5095156;28;20183;-67
2021/06/25 07:05:11;;;;;;;20.10;8.00;;;30.70;99.90;;;;;;5094094;28;20448;-66
2021/06/25 07:07:37;;;;;;;15.63;7.43;;;30.80;99.90;;;;;;5094725;28;20428;-66
2021/06/25 07:10:05;;;;;;;16.13;7.00;;;30.90;99.90;;;;;;5094561;28;20830;-68
2021/06/25 07:12:31;;;;;;;14.70;6.47;;;30.90;99.90;;;;;;5092383;28;20547;-66
2021/06/25 07:14:57;;;;;;;14.60;7.60;;;31.00;99.90;;;;;;5090570;28;20427;-67
2021/06/25 07:17:22;;;;;;;12.87;7.17;;;31.00;99.90;;;;;;5090123;28;20274;-67
2021/06/25 07:19:49;;;;;;;20.13;7.47;;;31.10;99.90;;;;;;5090537;28;20274;-67
2021/06/25 07:22:15;;;;;;;15.87;7.10;;;31.00;99.90;;;;;;5092152;28;20221;-66
2021/06/25 07:24:41;;;;;;;16.33;6.60;;;31.00;99.90;;;;;;5093990;28;20488;-67
2021/06/25 07:27:07;;;;;;;12.57;6.50;;;30.90;99.90;;;;;;5088631;28;20314;-68
2021/06/25 07:29:33;;;;;;;13.47;7.10;;;31.20;99.90;;;;;;5092818;28;20219;-67
2021/06/25 07:31:58;;;;;;;15.57;7.17;;;31.20;99.90;;;;;;5094428;28;20450;-69
2021/06/25 07:34:24;;;;;;;17.40;6.80;;;31.20;99.90;;;;;;5094921;28;20196;-67
2021/06/25 07:36:50;;;;;;;11.87;6.50;;;31.60;99.80;;;;;;5095527;28;20561;-67
2021/06/25 07:39:16;;;;;;;10.57;6.70;;;31.50;99.90;;;;;;5095291;28;20504;-68
2021/06/25 07:41:42;;;;;;;16.87;6.70;;;31.70;99.40;;;;;;5094683;28;20430;-68
2021/06/25 07:44:08;;;;;;;15.70;6.03;;;31.40;99.90;;;;;;5094712;28;20196;-68
2021/06/25 07:46:34;;;;;;;12.97;6.73;;;31.60;99.40;;;;;;5093831;28;20448;-68
2021/06/25 07:48:59;;;;;;;17.57;6.90;;;31.60;99.40;;;;;;5110449;28;20247;-66
2021/06/25 07:51:25;;;;;;;17.53;7.10;;;31.60;99.50;;;;;;5093646;28;20267;-67
2021/06/25 07:53:52;;;;;;;12.10;7.40;;;31.40;99.40;;;;;;5093511;28;20645;-66
2021/06/25 07:56:18;;;;;;;9.60;5.77;;;31.70;99.40;;;;;;5091709;28;20685;-67
2021/06/25 07:58:44;;;;;;;14.07;6.17;;;31.70;99.20;;;;;;5092722;28;20435;-68
2021/06/25 08:01:09;;;;;;;18.80;6.97;;;31.70;99.00;;;;;;5092133;28;20722;-68
2021/06/25 08:03:35;;;;;;;20.20;7.10;;;31.80;98.50;;;;;;5090622;28;20554;-68
2021/06/25 08:06:01;;;;;;;10.97;6.50;;;31.60;98.90;;;;;;5091127;28;20573;-67
2021/06/25 08:08:27;;;;;;;16.57;7.37;;;31.70;99.00;;;;;;5086901;28;20175;-69
2021/06/25 08:10:53;;;;;;;12.13;6.93;;;32.00;98.90;;;;;;5088419;28;20483;-66
2021/06/25 08:13:19;;;;;;;12.07;6.20;;;31.90;98.90;;;;;;5090360;28;20182;-68
2021/06/25 08:15:49;;;;;;;11.50;6.03;;;32.10;98.30;;;;;;5090217;28;20470;-68
2021/06/25 08:18:16;;;;;;;15.27;7.07;;;32.20;98.20;;;;;;5088848;28;20445;-67
2021/06/25 08:20:42;;;;;;;11.03;6.13;;;32.00;98.10;;;;;;5088971;28;20443;-69
2021/06/25 08:23:07;;;;;;;12.43;6.17;;;31.80;98.40;;;;;;5092180;28;20476;-67
2021/06/25 08:25:33;;;;;;;14.47;7.40;;;31.90;98.20;;;;;;5092247;28;20475;-66
2021/06/25 08:27:59;;;;;;;12.80;6.73;;;31.90;98.30;;;;;;5093925;28;20180;-68
2021/06/25 08:30:25;;;;;;;14.53;7.47;;;31.90;99.10;;;;;;5092407;28;20224;-68
2021/06/25 08:32:52;;;;;;;12.93;7.10;;;32.40;98.60;;;;;;5091356;28;20180;-69
2021/06/25 08:35:18;;;;;;;17.33;7.90;;;32.40;97.90;;;;;;5089099;28;20464;-67
2021/06/25 08:37:44;;;;;;;17.00;6.13;;;32.40;98.10;;;;;;5088557;28;20428;-66
2021/06/25 08:40:10;;;;;;;16.63;7.90;;;32.30;98.40;;;;;;5091390;28;20444;-67
2021/06/25 08:42:37;;;;;;;14.87;7.03;;;32.70;97.50;;;;;;5088060;28;20183;-68
2021/06/25 08:45:08;;;;;;;12.63;6.27;;;32.70;97.50;;;;;;5089217;28;20421;-68
2021/06/25 08:47:42;;;;;;;9.80;6.77;;;32.60;97.80;;;;;;5093349;28;20482;-68
2021/06/25 08:50:13;;;;;;;12.50;6.87;;;32.30;97.00;;;;;;5091014;28;20486;-69
2021/06/25 08:52:46;;;;;;;17.87;7.80;;;32.50;97.40;;;;;;5090606;28;20483;-66
2021/06/25 08:55:12;;;;;;;10.27;6.57;;;32.90;97.10;;;;;;5090081;28;20795;-66
2021/06/25 08:57:38;;;;;;;14.20;7.23;;;32.90;97.20;;;;;;5086424;28;20418;-68
2021/06/25 09:00:09;;;;;;;8.60;6.10;;;32.70;97.60;;;;;;5091277;28;20440;-68
2021/06/25 09:02:36;;;;;;;10.20;6.57;;;33.20;97.10;;;;;;5091920;28;20632;-68
2021/06/25 09:05:04;;;;;;;10.10;6.50;;;33.20;97.20;;;;;;5089257;28;20433;-68
2021/06/25 09:07:41;;;;;;;10.97;6.07;;;33.30;96.30;;;;;;5083688;28;20535;-69
2021/06/25 09:10:09;;;;;;;13.47;6.17;;;33.50;95.70;;;;;;5088303;28;20714;-69
2021/06/25 09:12:34;;;;;;;14.43;6.30;;;33.10;95.50;;;;;;5077514;28;20934;-66
2021/06/25 09:15:13;;;;;;;13.00;6.23;;;33.50;95.70;;;;;;5089143;28;20466;-67
2021/06/25 09:18:09;;;;;;;9.17;5.00;;;33.50;95.10;;;;;;5084937;28;20180;-66
2021/06/25 09:20:55;;;;;;;8.43;6.00;;;33.60;94.40;;;;;;5080642;28;20540;-66
2021/06/25 09:23:40;;;;;;;13.67;5.73;;;33.40;95.00;;;;;;5103585;28;20561;-66
2021/06/25 09:26:13;;;;;;;10.30;5.63;;;33.20;94.90;;;;;;5087949;28;20459;-69
2021/06/25 09:28:43;;;;;;;13.10;6.67;;;33.60;94.80;;;;;;5084993;28;20441;-68
2021/06/25 09:31:13;;;;;;;9.73;6.07;;;33.60;93.90;;;;;;5088354;28;20456;-66
2021/06/25 09:33:50;;;;;;;6.60;5.17;;;33.60;94.60;;;;;;5087859;28;21189;-68
2021/06/25 09:36:24;;;;;;;10.93;6.07;;;33.60;93.80;;;;;;5084664;28;20883;-66
2021/06/25 09:39:09;;;;;;;10.13;5.00;;;33.30;93.40;;;;;;5089553;28;20433;-68
2021/06/25 09:41:37;;;;;;;8.30;4.70;;;33.90;94.00;;;;;;5092225;28;20498;-66
2021/06/25 09:44:10;;;;;;;9.30;5.00;;;33.80;93.00;;;;;;5091115;28;20434;-66
2021/06/25 09:46:40;;;;;;;9.40;5.37;;;34.00;92.80;;;;;;5083150;28;20493;-67
2021/06/25 09:49:15;;;;;;;10.70;5.67;;;34.30;93.20;;;;;;5089818;28;20484;-67
2021/06/25 09:51:53;;;;;;;7.80;5.00;;;34.20;93.00;;;;;;5085921;28;20960;-68
2021/06/25 09:54:19;;;;;;;8.00;5.10;;;34.30;92.80;;;;;;5081983;28;20477;-69
2021/06/25 09:56:53;;;;;;;9.50;5.20;;;34.10;92.10;;;;;;5085155;28;20959;-67
2021/06/25 09:59:36;;;;;;;10.50;5.53;;;33.80;92.30;;;;;;5086041;28;20708;-66
2021/06/25 10:02:24;;;;;;;11.90;6.40;;;34.50;92.60;;;;;;5088892;28;20440;-66
2021/06/25 10:04:58;;;;;;;13.87;6.00;;;34.00;92.30;;;;;;5089481;28;20460;-66
2021/06/25 10:07:29;;;;;;;8.60;5.10;;;33.70;91.60;;;;;;5088073;28;20413;-67
2021/06/25 10:10:01;;;;;;;9.67;5.43;;;33.80;92.20;;;;;;5094100;28;21042;-68
2021/06/25 10:12:27;;;;;;;11.40;5.50;;;34.50;92.30;;;;;;5087569;28;20413;-66
2021/06/25 10:14:54;;;;;;;11.00;5.40;;;34.40;90.70;;;;;;5096516;28;20469;-68
2021/06/25 10:17:26;;;;;;;10.20;5.40;;;34.30;90.50;;;;;;5096792;28;20574;-67
2021/06/25 10:19:54;;;;;;;12.50;5.97;;;34.50;91.00;;;;;;5095364;28;20421;-67
2021/06/25 10:22:25;;;;;;;16.17;5.13;;;34.50;90.80;;;;;;5095497;28;20433;-68
2021/06/25 10:24:52;;;;;;;10.20;4.73;;;34.90;90.50;;;;;;5096069;28;20764;-66
2021/06/25 10:27:19;;;;;;;12.27;4.33;;;35.00;87.20;;;;;;5092162;28;20778;-69
2021/06/25 10:29:45;;;;;;;11.40;4.40;;;35.00;84.80;;;;;;5081905;28;20476;-67
2021/06/25 10:32:11;;;;;;;10.10;5.53;;;35.10;86.20;;;;;;5095569;28;20432;-69
2021/06/25 10:34:38;;;;;;;11.90;5.27;;;34.90;85.70;;;;;;5090188;28;20439;-69
2021/06/25 10:37:09;;;;;;;9.40;4.70;;;34.90;85.80;;;;;;5094896;28;20459;-68
2021/06/25 10:39:36;;;;;;;9.00;3.90;;;35.30;85.90;;;;;;5093470;28;20751;-68
2021/06/25 10:42:10;;;;;;;9.97;4.90;;;35.10;86.70;;;;;;5095264;28;20466;-67
2021/06/25 10:44:45;;;;;;;10.80;4.20;;;35.20;85.00;;;;;;5093541;28;20440;-68
2021/06/25 10:47:30;;;;;;;18.33;5.20;;;35.40;87.40;;;;;;5082641;28;20436;-66
2021/06/25 10:49:58;;;;;;;9.10;5.80;;;35.40;85.60;;;;;;5092852;28;20548;-68
2021/06/25 10:52:31;;;;;;;21.90;5.90;;;35.20;86.40;;;;;;5089464;28;20485;-68
2021/06/25 10:55:11;;;;;;;8.67;4.60;;;35.20;85.50;;;;;;5091986;28;20417;-68
2021/06/25 10:57:58;;;;;;;9.07;4.70;;;35.20;86.90;;;;;;5091359;28;20478;-66
2021/06/25 11:00:23;;;;;;;7.47;4.50;;;35.40;87.00;;;;;;5084906;28;20456;-66
2021/06/25 11:02:49;;;;;;;11.87;5.23;;;35.70;88.00;;;;;;5080394;28;20789;-66
2021/06/25 11:05:21;;;;;;;12.30;5.27;;;35.10;86.90;;;;;;5093155;28;20319;-69
2021/06/25 11:07:48;;;;;;;11.23;5.73;;;34.70;85.90;;;;;;5097361;28;20439;-67
2021/06/25 11:10:21;;;;;;;12.87;5.13;;;35.00;84.40;;;;;;5089462;28;20476;-66
2021/06/25 11:12:47;;;;;;;15.97;5.60;;;34.70;86.50;;;;;;5094145;28;20417;-69
2021/06/25 11:15:12;;;;;;;15.43;4.43;;;35.20;87.80;;;;;;5093804;28;20474;-68
2021/06/25 11:17:54;;;;;;;13.37;5.63;;;34.70;85.00;;;;;;5091832;28;20207;-68
2021/06/25 11:20:34;;;;;;;10.07;5.40;;;34.80;84.90;;;;;;5089521;28;20474;-68
2021/06/25 11:23:09;;;;;;;8.17;4.50;;;35.10;85.80;;;;;;5092657;28;20547;-66
2021/06/25 11:25:45;;;;;;;13.03;5.37;;;35.30;87.60;;;;;;5092738;28;20894;-67
2021/06/25 11:28:12;;;;;;;11.30;4.90;;;34.90;88.90;;;;;;5092607;28;20432;-66
2021/06/25 11:30:51;;;;;;;7.53;4.50;;;34.90;88.90;;;;;;5094708;28;21123;-69
2021/06/25 11:33:27;;;;;;;11.70;5.00;;;34.80;89.70;;;;;;5096601;28;20838;-68
2021/06/25 11:35:54;;;;;;;11.57;4.70;;;34.60;89.00;;;;;;5080609;28;20463;-69
2021/06/25 11:38:39;;;;;;;9.83;5.77;;;34.60;87.30;;;;;;5093781;28;20754;-67
2021/06/25 11:41:11;;;;;;;9.07;5.33;;;34.60;88.70;;;;;;5088310;28;20449;-69
2021/06/25 11:43:37;;;;;;;7.43;5.07;;;34.30;87.10;;;;;;5092057;28;20914;-67
2021/06/25 11:46:04;;;;;;;8.43;4.90;;;34.60;88.50;;;;;;5090601;28;20448;-66
2021/06/25 11:48:32;;;;;;;16.00;5.50;;;34.70;87.20;;;;;;5092311;28;20427;-68
2021/06/25 11:50:59;;;;;;;11.17;4.77;;;34.60;88.10;;;;;;5090892;28;20479;-67
2021/06/25 11:53:26;;;;;;;9.07;5.10;;;34.90;88.50;;;;;;5092558;28;20910;-67
2021/06/25 11:55:53;;;;;;;17.87;4.97;;;34.70;88.20;;;;;;5092624;28;20441;-69
2021/06/25 11:58:20;;;;;;;9.33;5.40;;;34.60;89.40;;;;;;5091816;28;20542;-66
2021/06/25 12:00:45;;;;;;;10.67;5.63;;;34.70;89.20;;;;;;5089998;28;20507;-67
2021/06/25 12:03:11;;;;;;;11.30;5.27;;;34.70;90.00;;;;;;5091398;28;20433;-68
2021/06/25 12:05:40;;;;;;;15.40;6.27;;;34.60;88.30;;;;;;5091207;28;20201;-69
2021/06/25 12:08:10;;;;;;;10.73;4.57;;;34.70;87.30;;;;;;5090946;28;20172;-69
2021/06/25 12:10:43;;;;;;;12.07;5.07;;;34.50;88.30;;;;;;5086796;28;20497;-68
2021/06/25 12:13:10;;;;;;;12.93;5.10;;;34.70;89.40;;;;;;5090161;28;20922;-67
2021/06/25 12:15:47;;;;;;;14.27;5.30;;;34.10;87.40;;;;;;5090731;28;20440;-68
2021/06/25 12:18:24;;;;;;;10.47;5.83;;;34.20;86.40;;;;;;5086300;28;20805;-69
2021/06/25 12:21:07;;;;;;;11.10;5.50;;;34.00;87.50;;;;;;5087612;28;20436;-68
2021/06/25 12:23:32;;;;;;;10.67;5.17;;;34.30;88.00;;;;;;5084903;28;20476;-66
2021/06/25 12:26:07;;;;;;;12.43;6.63;;;34.10;87.80;;;;;;5090260;28;20950;-66
2021/06/25 12:28:32;;;;;;;17.90;5.57;;;34.30;88.20;;;;;;5090944;28;21600;-67
2021/06/25 12:31:03;;;;;;;19.20;5.60;;;34.70;86.80;;;;;;5093182;28;20540;-67
2021/06/25 12:33:31;;;;;;;11.27;6.00;;;34.60;87.50;;;;;;5091752;28;20188;-67
2021/06/25 12:35:57;;;;;;;10.40;5.70;;;34.90;87.20;;;;;;5089853;28;20444;-67
2021/06/25 12:38:28;;;;;;;15.47;6.13;;;34.70;86.60;;;;;;5093488;28;20429;-68
2021/06/25 12:41:07;;;;;;;16.80;6.67;;;34.80;86.10;;;;;;5108224;28;20441;-67
2021/06/25 12:43:35;;;;;;;14.03;4.53;;;35.00;87.00;;;;;;5092368;28;20433;-67
2021/06/25 12:46:11;;;;;;;12.47;5.03;;;34.80;85.50;;;;;;5091111;28;20829;-68
2021/06/25 12:48:40;;;;;;;12.97;6.47;;;34.40;85.50;;;;;;5093444;28;20941;-67
2021/06/25 12:51:13;;;;;;;14.63;5.63;;;34.40;85.90;;;;;;5088658;28;20477;-67